createdAt,value
2023-04-15T00:00:03.091Z,5.74
2023-04-15T00:01:02.919Z,5.55
2023-04-15T00:02:03.152Z,5.41
2023-04-15T00:03:03.059Z,5.37
2023-04-15T00:04:03.242Z,5.31
2023-04-15T00:05:03.317Z,5.32
2023-04-15T00:06:03.304Z,5.40
2023-04-15T00:07:02.340Z,5.43
2023-04-15T00:08:02.350Z,5.48
2023-04-15T00:09:02.313Z,5.50
2023-04-15T00:10:02.567Z,5.53
2023-04-15T00:11:01.936Z,5.52
2023-04-15T00:12:02.771Z,5.50
2023-04-15T00:13:03.061Z,5.48
2023-04-15T00:14:02.767Z,5.40
2023-04-15T00:15:02.550Z,5.37
2023-04-15T00:16:02.785Z,5.37
2023-04-15T00:17:03.074Z,5.40
2023-04-15T00:18:02.845Z,5.38
2023-04-15T00:19:02.869Z,5.32
2023-04-15T00:20:02.921Z,5.28
2023-04-15T00:21:03.021Z,5.31
2023-04-15T00:22:02.349Z,5.27
2023-04-15T00:23:02.423Z,5.25
2023-04-15T00:24:02.245Z,5.25
2023-04-15T00:25:01.836Z,5.28
2023-04-15T00:26:01.981Z,5.32
2023-04-15T00:27:02.868Z,5.31
2023-04-15T00:28:02.601Z,5.31
2023-04-15T00:29:02.599Z,5.37
2023-04-15T00:30:02.495Z,5.38
2023-04-15T00:31:03.018Z,5.40
2023-04-15T00:32:02.850Z,5.40
2023-04-15T00:33:02.987Z,5.41
2023-04-15T00:34:03.040Z,5.37
2023-04-15T00:35:02.975Z,5.38
2023-04-15T00:36:02.993Z,5.35
2023-04-15T00:37:02.949Z,5.35
2023-04-15T00:38:02.986Z,5.32
2023-04-15T00:39:02.793Z,5.32
2023-04-15T00:40:02.853Z,5.34
2023-04-15T00:41:02.916Z,5.32
2023-04-15T00:42:02.313Z,5.35
2023-04-15T00:43:01.979Z,5.37
2023-04-15T00:44:02.100Z,5.32
2023-04-15T00:45:01.778Z,5.32
2023-04-15T00:46:02.315Z,5.35
2023-04-15T00:47:02.123Z,5.40
2023-04-15T00:48:02.232Z,5.43
2023-04-15T00:49:02.479Z,5.41
2023-04-15T00:50:01.967Z,5.40
2023-04-15T00:51:02.131Z,5.37
2023-04-15T00:52:02.043Z,5.35
2023-04-15T00:53:02.012Z,5.35
2023-04-15T00:54:02.098Z,5.37
2023-04-15T00:55:02.332Z,5.35
2023-04-15T00:56:02.169Z,5.35
2023-04-15T00:57:02.483Z,5.38
2023-04-15T00:58:02.390Z,5.35
2023-04-15T00:59:02.410Z,5.40
2023-04-15T01:00:02.645Z,5.32
2023-04-15T01:01:01.928Z,5.32
2023-04-15T01:02:03.097Z,5.31
2023-04-15T01:03:02.611Z,5.23
2023-04-15T01:04:02.610Z,5.20
2023-04-15T01:05:02.635Z,5.17
2023-04-15T01:06:04.014Z,5.13
2023-04-15T01:07:03.071Z,5.14
2023-04-15T01:08:03.318Z,5.10
2023-04-15T01:09:03.344Z,5.09
2023-04-15T01:10:03.279Z,5.04
2023-04-15T01:11:03.323Z,5.10
2023-04-15T01:12:03.293Z,5.13
2023-04-15T01:13:02.706Z,5.16
2023-04-15T01:14:03.112Z,5.13
2023-04-15T01:15:02.926Z,5.14
2023-04-15T01:16:03.286Z,5.14
2023-04-15T01:17:03.219Z,5.17
2023-04-15T01:18:03.407Z,5.14
2023-04-15T01:19:03.352Z,5.16
2023-04-15T01:20:03.206Z,5.19
2023-04-15T01:21:03.628Z,5.17
2023-04-15T01:22:02.871Z,5.17
2023-04-15T01:23:02.994Z,5.19
2023-04-15T01:24:03.138Z,5.17
2023-04-15T01:25:02.921Z,5.14
2023-04-15T01:26:03.135Z,5.13
2023-04-15T01:27:03.292Z,5.10
2023-04-15T01:28:03.615Z,5.07
2023-04-15T01:29:03.432Z,5.05
2023-04-15T01:30:03.284Z,4.98
2023-04-15T01:31:03.462Z,4.95
2023-04-15T01:32:02.827Z,4.91
2023-04-15T01:33:03.196Z,4.89
2023-04-15T01:34:02.821Z,4.86
2023-04-15T01:35:03.091Z,4.84
2023-04-15T01:36:03.216Z,4.77
2023-04-15T01:37:02.797Z,4.77
2023-04-15T01:38:03.010Z,4.75
2023-04-15T01:39:02.548Z,4.73
2023-04-15T01:40:02.813Z,4.69
2023-04-15T01:41:02.426Z,4.67
2023-04-15T01:42:02.775Z,4.64
2023-04-15T01:43:02.657Z,4.61
2023-04-15T01:44:03.243Z,4.61
2023-04-15T01:45:03.307Z,4.59
2023-04-15T01:46:02.948Z,4.57
2023-04-15T01:47:03.579Z,4.55
2023-04-15T01:48:03.586Z,4.55
2023-04-15T01:49:03.623Z,4.57
2023-04-15T01:50:03.158Z,4.57
2023-04-15T01:51:03.085Z,4.58
2023-04-15T01:52:02.901Z,4.54
2023-04-15T01:53:02.591Z,4.54
2023-04-15T01:54:02.681Z,4.51
2023-04-15T01:55:02.976Z,4.55
2023-04-15T01:56:02.675Z,4.55
2023-04-15T01:57:03.091Z,4.54
2023-04-15T01:58:03.038Z,4.57
2023-04-15T01:59:03.323Z,4.55
2023-04-15T02:00:03.256Z,4.55
2023-04-15T02:01:02.991Z,4.54
2023-04-15T02:02:02.457Z,4.54
2023-04-15T02:03:02.366Z,4.57
2023-04-15T02:04:02.770Z,4.57
2023-04-15T02:05:02.290Z,4.57
2023-04-15T02:06:02.420Z,4.57
2023-04-15T02:07:03.024Z,4.57
2023-04-15T02:08:03.074Z,4.55
2023-04-15T02:09:02.724Z,4.57
2023-04-15T02:10:03.179Z,4.55
2023-04-15T02:11:02.468Z,4.55
2023-04-15T02:12:02.593Z,4.57
2023-04-15T02:13:02.836Z,4.57
2023-04-15T02:14:02.752Z,4.58
2023-04-15T02:15:02.463Z,4.59
2023-04-15T02:16:02.974Z,4.62
2023-04-15T02:17:02.907Z,4.61
2023-04-15T02:18:03.292Z,4.64
2023-04-15T02:19:03.235Z,4.69
2023-04-15T02:20:02.924Z,4.70
2023-04-15T02:21:03.190Z,4.72
2023-04-15T02:22:02.655Z,4.76
2023-04-15T02:23:02.853Z,4.76
2023-04-15T02:24:02.418Z,4.79
2023-04-15T02:25:02.384Z,4.86
2023-04-15T02:26:02.668Z,4.83
2023-04-15T02:27:03.170Z,4.79
2023-04-15T02:28:02.897Z,4.76
2023-04-15T02:29:03.117Z,4.83
2023-04-15T02:30:03.192Z,4.84
2023-04-15T02:31:02.678Z,4.86
2023-04-15T02:32:03.112Z,4.89
2023-04-15T02:33:03.308Z,4.91
2023-04-15T02:34:03.096Z,4.89
2023-04-15T02:35:03.365Z,4.86
2023-04-15T02:36:03.345Z,4.84
2023-04-15T02:37:02.656Z,4.83
2023-04-15T02:38:02.367Z,4.84
2023-04-15T02:39:03.143Z,4.83
2023-04-15T02:40:02.869Z,4.77
2023-04-15T02:41:02.827Z,4.73
2023-04-15T02:42:03.154Z,4.64
2023-04-15T02:43:02.780Z,4.57
2023-04-15T02:44:02.973Z,4.52
2023-04-15T02:45:02.819Z,4.54
2023-04-15T02:46:03.291Z,4.50
2023-04-15T02:47:02.486Z,4.54
2023-04-15T02:48:02.638Z,4.52
2023-04-15T02:49:02.273Z,4.51
2023-04-15T02:50:02.064Z,4.52
2023-04-15T02:51:02.054Z,4.50
2023-04-15T02:52:02.782Z,4.52
2023-04-15T02:53:03.075Z,4.55
2023-04-15T02:54:02.821Z,4.46
2023-04-15T02:55:03.112Z,4.37
2023-04-15T02:56:03.237Z,4.32
2023-04-15T02:57:02.185Z,4.29
2023-04-15T02:58:02.402Z,4.33
2023-04-15T02:59:02.544Z,4.32
2023-04-15T03:00:02.054Z,4.37
2023-04-15T03:01:02.443Z,4.39
2023-04-15T03:02:02.577Z,4.39
2023-04-15T03:03:02.334Z,4.37
2023-04-15T03:04:02.262Z,4.36
2023-04-15T03:05:02.015Z,4.37
2023-04-15T03:06:02.602Z,4.36
2023-04-15T03:07:02.529Z,4.37
2023-04-15T03:08:02.422Z,4.36
2023-04-15T03:09:02.486Z,4.36
2023-04-15T03:10:02.667Z,4.33
2023-04-15T03:11:02.103Z,4.34
2023-04-15T03:12:03.062Z,4.29
2023-04-15T03:13:02.592Z,4.32
2023-04-15T03:14:02.774Z,4.28
2023-04-15T03:15:02.646Z,4.26
2023-04-15T03:16:02.965Z,4.26
2023-04-15T03:17:02.138Z,4.26
2023-04-15T03:18:02.385Z,4.28
2023-04-15T03:19:02.148Z,4.26
2023-04-15T03:20:01.884Z,4.26
2023-04-15T03:21:02.365Z,4.25
2023-04-15T03:22:02.317Z,4.22
2023-04-15T03:23:02.505Z,4.22
2023-04-15T03:24:02.504Z,4.24
2023-04-15T03:25:01.950Z,4.25
2023-04-15T03:26:01.830Z,4.25
2023-04-15T03:27:02.998Z,4.16
2023-04-15T03:28:02.598Z,4.14
2023-04-15T03:29:03.216Z,4.12
2023-04-15T03:30:02.943Z,4.07
2023-04-15T03:31:02.561Z,4.08
2023-04-15T03:32:02.300Z,4.06
2023-04-15T03:33:02.697Z,4.10
2023-04-15T03:34:02.073Z,4.10
2023-04-15T03:35:02.199Z,4.12
2023-04-15T03:36:02.203Z,4.12
2023-04-15T03:37:02.625Z,4.14
2023-04-15T03:38:02.855Z,4.08
2023-04-15T03:39:03.226Z,4.07
2023-04-15T03:40:02.669Z,4.03
2023-04-15T03:41:02.961Z,4.01
2023-04-15T03:42:02.783Z,4.01
2023-04-15T03:43:02.580Z,4.04
2023-04-15T03:44:02.685Z,4.03
2023-04-15T03:45:02.811Z,4.08
2023-04-15T03:46:02.964Z,4.07
2023-04-15T03:47:02.228Z,4.03
2023-04-15T03:49:02.322Z,4.04
2023-04-15T03:50:02.213Z,4.01
2023-04-15T03:51:01.742Z,4.03
2023-04-15T03:52:02.048Z,3.98
2023-04-15T03:53:02.524Z,3.96
2023-04-15T03:54:02.184Z,3.94
2023-04-15T03:55:02.609Z,4.00
2023-04-15T03:56:02.694Z,4.00
2023-04-15T03:57:02.244Z,3.97
2023-04-15T03:58:02.805Z,3.94
2023-04-15T03:59:02.933Z,3.94
2023-04-15T04:00:02.434Z,3.92
2023-04-15T04:01:02.243Z,3.88
2023-04-15T04:02:02.865Z,3.82
2023-04-15T04:03:03.077Z,3.79
2023-04-15T04:04:02.496Z,3.72
2023-04-15T04:05:02.479Z,3.67
2023-04-15T04:06:02.713Z,3.64
2023-04-15T04:07:02.324Z,3.60
2023-04-15T04:08:02.464Z,3.58
2023-04-15T04:09:02.964Z,3.57
2023-04-15T04:10:02.420Z,3.53
2023-04-15T04:11:02.840Z,3.50
2023-04-15T04:12:02.547Z,3.47
2023-04-15T04:13:02.702Z,3.47
2023-04-15T04:14:02.984Z,3.44
2023-04-15T04:15:02.748Z,3.43
2023-04-15T04:16:02.518Z,3.46
2023-04-15T04:17:03.099Z,3.49
2023-04-15T04:18:02.972Z,3.53
2023-04-15T04:19:03.390Z,3.54
2023-04-15T04:20:03.159Z,3.58
2023-04-15T04:21:03.084Z,3.61
2023-04-15T04:22:03.243Z,3.64
2023-04-15T04:23:03.017Z,3.64
2023-04-15T04:24:02.643Z,3.62
2023-04-15T04:25:02.872Z,3.67
2023-04-15T04:26:02.770Z,3.67
2023-04-15T04:27:02.054Z,3.72
2023-04-15T04:28:02.707Z,3.75
2023-04-15T04:29:02.826Z,3.75
2023-04-15T04:30:02.702Z,3.76
2023-04-15T04:31:02.398Z,3.78
2023-04-15T04:32:02.860Z,3.76
2023-04-15T04:33:03.128Z,3.78
2023-04-15T04:34:02.691Z,3.78
2023-04-15T04:35:03.157Z,3.72
2023-04-15T04:36:02.644Z,3.70
2023-04-15T04:37:02.224Z,3.67
2023-04-15T04:38:02.371Z,3.64
2023-04-15T04:39:02.082Z,3.60
2023-04-15T04:40:02.012Z,3.57
2023-04-15T04:41:02.405Z,3.57
2023-04-15T04:42:02.394Z,3.57
2023-04-15T04:43:02.820Z,3.57
2023-04-15T04:44:02.625Z,3.60
2023-04-15T04:45:02.497Z,3.62
2023-04-15T04:46:02.459Z,3.64
2023-04-15T04:47:02.786Z,3.68
2023-04-15T04:48:03.118Z,3.71
2023-04-15T04:49:03.205Z,3.70
2023-04-15T04:50:03.212Z,3.70
2023-04-15T04:51:03.017Z,3.64
2023-04-15T04:52:02.333Z,3.57
2023-04-15T04:53:02.390Z,3.50
2023-04-15T04:54:03.821Z,3.43
2023-04-15T04:55:02.876Z,3.42
2023-04-15T04:56:02.354Z,3.42
2023-04-15T04:57:02.154Z,3.47
2023-04-15T04:58:02.512Z,3.50
2023-04-15T04:59:02.162Z,3.54
2023-04-15T05:00:01.981Z,3.58
2023-04-15T05:01:01.963Z,3.61
2023-04-15T05:02:03.652Z,3.64
2023-04-15T05:03:03.514Z,3.67
2023-04-15T05:04:03.558Z,3.68
2023-04-15T05:05:03.581Z,3.70
2023-04-15T05:06:03.314Z,3.64
2023-04-15T05:07:02.493Z,3.61
2023-04-15T05:08:02.412Z,3.62
2023-04-15T05:09:03.085Z,3.67
2023-04-15T05:10:02.273Z,3.68
2023-04-15T05:11:02.686Z,3.76
2023-04-15T05:12:02.986Z,3.76
2023-04-15T05:13:03.311Z,3.71
2023-04-15T05:14:02.765Z,3.72
2023-04-15T05:15:03.251Z,3.80
2023-04-15T05:16:03.146Z,3.85
2023-04-15T05:17:02.778Z,3.86
2023-04-15T05:18:02.825Z,3.80
2023-04-15T05:19:02.715Z,3.83
2023-04-15T05:20:02.666Z,3.82
2023-04-15T05:21:02.292Z,3.75
2023-04-15T05:22:02.500Z,3.76
2023-04-15T05:23:02.440Z,3.80
2023-04-15T05:24:02.745Z,3.82
2023-04-15T05:25:02.384Z,3.82
2023-04-15T05:26:02.708Z,3.80
2023-04-15T05:27:03.161Z,3.83
2023-04-15T05:28:02.819Z,3.83
2023-04-15T05:29:03.171Z,3.83
2023-04-15T05:30:03.027Z,3.86
2023-04-15T05:31:03.426Z,3.90
2023-04-15T05:32:02.265Z,3.90
2023-04-15T05:33:02.669Z,3.85
2023-04-15T05:34:02.493Z,3.82
2023-04-15T05:35:02.715Z,3.85
2023-04-15T05:36:02.305Z,3.82
2023-04-15T05:37:02.655Z,3.78
2023-04-15T05:38:02.814Z,3.72
2023-04-15T05:39:02.917Z,3.71
2023-04-15T05:40:02.481Z,3.67
2023-04-15T05:41:02.804Z,3.70
2023-04-15T05:42:03.006Z,3.65
2023-04-15T05:43:02.975Z,3.65
2023-04-15T05:44:02.892Z,3.72
2023-04-15T05:45:02.614Z,3.82
2023-04-15T05:46:03.093Z,3.88
2023-04-15T05:47:02.579Z,3.98
2023-04-15T05:48:02.437Z,4.01
2023-04-15T05:49:02.889Z,4.04
2023-04-15T05:50:02.267Z,4.03
2023-04-15T05:51:02.750Z,4.06
2023-04-15T05:52:02.299Z,4.10
2023-04-15T05:53:02.793Z,4.18
2023-04-15T05:54:02.411Z,4.24
2023-04-15T05:55:02.715Z,4.34
2023-04-15T05:56:02.428Z,4.40
2023-04-15T05:57:03.082Z,4.47
2023-04-15T05:58:03.052Z,4.59
2023-04-15T05:59:03.149Z,4.69
2023-04-15T06:00:03.071Z,4.79
2023-04-15T06:01:02.429Z,4.91
2023-04-15T06:02:02.411Z,4.98
2023-04-15T06:03:02.369Z,5.09
2023-04-15T06:04:02.649Z,5.19
2023-04-15T06:05:02.765Z,5.28
2023-04-15T06:06:02.300Z,5.35
2023-04-15T06:07:03.109Z,5.45
2023-04-15T06:08:03.298Z,5.53
2023-04-15T06:09:03.288Z,5.66
2023-04-15T06:10:03.305Z,5.67
2023-04-15T06:11:02.952Z,5.66
2023-04-15T06:12:02.657Z,5.66
2023-04-15T06:13:02.533Z,5.73
2023-04-15T06:14:02.264Z,5.85
2023-04-15T06:15:02.655Z,6.00
2023-04-15T06:16:02.326Z,6.13
2023-04-15T06:17:03.239Z,6.26
2023-04-15T06:18:03.303Z,6.38
2023-04-15T06:19:03.027Z,6.50
2023-04-15T06:20:02.795Z,6.61
2023-04-15T06:21:03.034Z,6.68
2023-04-15T06:22:02.429Z,6.71
2023-04-15T06:23:02.309Z,6.76
2023-04-15T06:24:01.899Z,6.86
2023-04-15T06:25:02.285Z,6.90
2023-04-15T06:26:02.449Z,6.95
2023-04-15T06:27:02.616Z,7.04
2023-04-15T06:28:02.398Z,7.12
2023-04-15T06:29:02.254Z,7.22
2023-04-15T06:30:01.930Z,7.27
2023-04-15T06:31:02.322Z,7.47
2023-04-15T06:32:02.694Z,7.63
2023-04-15T06:33:03.115Z,7.81
2023-04-15T06:34:02.631Z,7.96
2023-04-15T06:35:02.497Z,8.11
2023-04-15T06:36:02.724Z,8.25
2023-04-15T06:37:02.328Z,8.35
2023-04-15T06:38:01.745Z,8.48
2023-04-15T06:39:02.171Z,8.58
2023-04-15T06:40:02.325Z,8.68
2023-04-15T06:41:02.220Z,8.76
2023-04-15T06:42:02.957Z,8.87
2023-04-15T06:43:02.308Z,9.01
2023-04-15T06:44:02.457Z,9.12
2023-04-15T06:45:02.241Z,9.24
2023-04-15T06:46:02.691Z,9.34
2023-04-15T06:47:02.058Z,9.45
2023-04-15T06:48:02.123Z,9.52
2023-04-15T06:49:02.085Z,9.60
2023-04-15T06:50:02.095Z,9.67
2023-04-15T06:51:01.884Z,9.75
2023-04-15T06:52:02.492Z,9.81
2023-04-15T06:53:02.160Z,9.85
2023-04-15T06:54:02.566Z,9.89
2023-04-15T06:55:02.272Z,9.99
2023-04-15T06:56:02.592Z,10.06
2023-04-15T06:57:02.345Z,10.10
2023-04-15T06:58:02.378Z,10.17
2023-04-15T06:59:02.851Z,10.21
2023-04-15T07:00:02.335Z,10.22
2023-04-15T07:01:02.741Z,10.24
2023-04-15T07:02:02.579Z,10.25
2023-04-15T07:03:02.796Z,10.30
2023-04-15T07:04:02.541Z,10.32
2023-04-15T07:05:02.742Z,10.37
2023-04-15T07:06:03.106Z,10.42
2023-04-15T07:07:02.614Z,10.46
2023-04-15T07:08:02.558Z,10.44
2023-04-15T07:09:03.294Z,10.51
2023-04-15T07:10:03.083Z,10.47
2023-04-15T07:11:02.813Z,10.56
2023-04-15T07:12:02.721Z,10.60
2023-04-15T07:13:02.529Z,10.66
2023-04-15T07:14:02.873Z,10.70
2023-04-15T07:15:02.790Z,10.78
2023-04-15T07:16:02.640Z,10.86
2023-04-15T07:17:02.787Z,10.95
2023-04-15T07:18:03.332Z,11.02
2023-04-15T07:19:03.024Z,11.14
2023-04-15T07:20:02.831Z,11.19
2023-04-15T07:21:02.633Z,11.28
2023-04-15T07:22:02.242Z,11.32
2023-04-15T07:23:02.240Z,11.41
2023-04-15T07:24:02.457Z,11.50
2023-04-15T07:25:02.620Z,11.56
2023-04-15T07:26:02.575Z,11.62
2023-04-15T07:27:02.399Z,11.70
2023-04-15T07:28:02.874Z,11.80
2023-04-15T07:29:02.508Z,11.90
2023-04-15T07:30:02.564Z,12.04
2023-04-15T07:31:02.417Z,12.15
2023-04-15T07:32:02.417Z,12.27
2023-04-15T07:33:02.536Z,12.37
2023-04-15T07:34:02.446Z,12.41
2023-04-15T07:35:02.362Z,12.48
2023-04-15T07:36:02.911Z,12.57
2023-04-15T07:37:03.047Z,12.60
2023-04-15T07:38:03.059Z,12.66
2023-04-15T07:39:03.361Z,12.78
2023-04-15T07:40:02.864Z,12.89
2023-04-15T07:41:03.126Z,12.97
2023-04-15T07:42:02.713Z,13.04
2023-04-15T07:43:02.588Z,13.04
2023-04-15T07:44:02.842Z,13.14
2023-04-15T07:45:02.320Z,13.18
2023-04-15T07:46:02.876Z,13.22
2023-04-15T07:47:02.716Z,13.22
2023-04-15T07:48:02.626Z,13.20
2023-04-15T07:49:02.755Z,13.11
2023-04-15T07:50:02.996Z,13.11
2023-04-15T07:51:02.858Z,13.15
2023-04-15T07:52:02.915Z,13.18
2023-04-15T07:53:03.256Z,13.24
2023-04-15T07:54:03.064Z,13.30
2023-04-15T07:55:02.845Z,13.36
2023-04-15T07:56:02.647Z,13.38
2023-04-15T07:57:03.297Z,13.40
2023-04-15T07:58:03.334Z,13.43
2023-04-15T07:59:03.295Z,13.54
2023-04-15T08:00:03.602Z,13.62
2023-04-15T08:01:03.267Z,13.65
2023-04-15T08:02:03.065Z,13.62
2023-04-15T08:03:03.223Z,13.58
2023-04-15T08:04:02.887Z,13.52
2023-04-15T08:05:02.712Z,13.54
2023-04-15T08:06:03.157Z,13.54
2023-04-15T08:07:03.274Z,13.54
2023-04-15T08:08:03.215Z,13.54
2023-04-15T08:09:03.189Z,13.59
2023-04-15T08:10:02.915Z,13.59
2023-04-15T08:11:03.195Z,13.59
2023-04-15T08:12:03.157Z,13.62
2023-04-15T08:13:02.746Z,13.67
2023-04-15T08:14:02.761Z,13.63
2023-04-15T08:15:02.548Z,13.61
2023-04-15T08:16:03.042Z,13.58
2023-04-15T08:17:03.243Z,13.58
2023-04-15T08:18:03.346Z,13.58
2023-04-15T08:19:03.466Z,13.56
2023-04-15T08:20:03.061Z,13.59
2023-04-15T08:21:03.563Z,13.63
2023-04-15T08:22:02.810Z,13.65
2023-04-15T08:23:02.753Z,13.71
2023-04-15T08:24:02.429Z,13.81
2023-04-15T08:25:02.593Z,13.94
2023-04-15T08:26:03.040Z,14.07
2023-04-15T08:27:03.407Z,14.20
2023-04-15T08:28:03.187Z,14.29
2023-04-15T08:29:03.835Z,14.38
2023-04-15T08:30:05.056Z,14.44
2023-04-15T08:31:03.412Z,14.53
2023-04-15T08:32:03.586Z,14.53
2023-04-15T08:33:03.644Z,14.56
2023-04-15T08:34:03.527Z,14.62
2023-04-15T08:35:03.276Z,14.71
2023-04-15T08:36:03.403Z,14.80
2023-04-15T08:37:02.964Z,14.90
2023-04-15T08:38:02.593Z,14.99
2023-04-15T08:39:03.114Z,15.02
2023-04-15T08:40:02.613Z,15.06
2023-04-15T08:41:02.929Z,15.17
2023-04-15T08:42:03.238Z,15.17
2023-04-15T08:43:02.907Z,15.12
2023-04-15T08:44:03.286Z,15.09
2023-04-15T08:45:03.234Z,15.19
2023-04-15T08:46:03.085Z,15.23
2023-04-15T08:47:03.527Z,15.27
2023-04-15T08:48:03.239Z,15.31
2023-04-15T08:49:03.989Z,15.46
2023-04-15T08:50:03.720Z,15.54
2023-04-15T08:51:03.530Z,15.59
2023-04-15T08:52:02.536Z,15.54
2023-04-15T08:53:02.435Z,15.57
2023-04-15T08:54:02.986Z,15.61
2023-04-15T08:55:02.887Z,15.59
2023-04-15T08:56:02.614Z,15.66
2023-04-15T08:57:02.846Z,15.74
2023-04-15T08:58:02.951Z,15.82
2023-04-15T08:59:02.983Z,15.94
2023-04-15T09:00:03.846Z,16.00
2023-04-15T09:01:02.947Z,16.09
2023-04-15T09:02:02.927Z,16.15
2023-04-15T09:03:02.703Z,16.18
2023-04-15T09:04:02.908Z,16.12
2023-04-15T09:05:02.757Z,16.06
2023-04-15T09:06:02.578Z,16.07
2023-04-15T09:07:02.407Z,16.11
2023-04-15T09:08:02.103Z,16.01
2023-04-15T09:09:02.158Z,15.94
2023-04-15T09:10:01.974Z,15.86
2023-04-15T09:11:02.209Z,15.92
2023-04-15T09:12:02.723Z,15.96
2023-04-15T09:13:02.299Z,16.01
2023-04-15T09:14:02.155Z,16.07
2023-04-15T09:15:02.530Z,16.14
2023-04-15T09:16:02.408Z,16.14
2023-04-15T09:17:02.992Z,16.18
2023-04-15T09:18:02.783Z,16.22
2023-04-15T09:19:02.563Z,16.25
2023-04-15T09:20:02.494Z,16.25
2023-04-15T09:21:02.391Z,16.30
2023-04-15T09:22:03.006Z,16.33
2023-04-15T09:23:02.389Z,16.30
2023-04-15T09:24:03.033Z,16.34
2023-04-15T09:25:02.821Z,16.48
2023-04-15T09:26:02.592Z,16.53
2023-04-15T09:27:01.578Z,16.52
2023-04-15T09:28:01.857Z,16.55
2023-04-15T09:29:01.594Z,16.62
2023-04-15T09:30:02.202Z,16.70
2023-04-15T09:31:02.001Z,16.73
2023-04-15T09:32:01.620Z,16.74
2023-04-15T09:33:02.303Z,16.80
2023-04-15T09:34:02.155Z,16.78
2023-04-15T09:35:01.890Z,16.83
2023-04-15T09:36:01.820Z,16.75
2023-04-15T09:37:03.188Z,16.68
2023-04-15T09:38:02.368Z,16.75
2023-04-15T09:39:02.524Z,16.74
2023-04-15T09:40:02.421Z,16.83
2023-04-15T09:41:02.255Z,16.85
2023-04-15T09:42:01.752Z,16.90
2023-04-15T09:43:01.670Z,16.93
2023-04-15T09:44:01.979Z,17.03
2023-04-15T09:45:01.967Z,17.08
2023-04-15T09:46:01.776Z,17.13
2023-04-15T09:47:02.438Z,17.15
2023-04-15T09:48:02.382Z,17.20
2023-04-15T09:49:02.383Z,17.28
2023-04-15T09:50:02.568Z,17.26
2023-04-15T09:51:02.866Z,17.29
2023-04-15T09:52:05.802Z,17.35
2023-04-15T09:53:02.563Z,17.36
2023-04-15T09:54:02.621Z,17.38
2023-04-15T09:55:02.691Z,17.44
2023-04-15T09:56:02.576Z,17.53
2023-04-15T09:57:02.491Z,17.57
2023-04-15T09:58:03.117Z,17.48
2023-04-15T09:59:02.698Z,17.48
2023-04-15T10:00:02.565Z,17.53
2023-04-15T10:01:02.663Z,17.62
2023-04-15T10:02:03.243Z,17.71
2023-04-15T10:03:03.385Z,17.82
2023-04-15T10:04:04.114Z,17.92
2023-04-15T10:05:03.256Z,17.99
2023-04-15T10:06:03.222Z,18.03
2023-04-15T10:07:02.746Z,18.00
2023-04-15T10:08:03.248Z,17.94
2023-04-15T10:09:02.888Z,17.94
2023-04-15T10:10:03.233Z,17.89
2023-04-15T10:11:02.947Z,17.82
2023-04-15T10:12:02.748Z,17.79
2023-04-15T10:13:02.652Z,17.70
2023-04-15T10:14:02.850Z,17.73
2023-04-15T10:15:02.824Z,17.73
2023-04-15T10:16:02.726Z,17.79
2023-04-15T10:17:03.259Z,17.84
2023-04-15T10:18:03.426Z,17.87
2023-04-15T10:19:03.157Z,17.97
2023-04-15T10:20:03.701Z,18.03
2023-04-15T10:21:03.502Z,18.07
2023-04-15T10:22:03.410Z,18.07
2023-04-15T10:23:03.311Z,18.17
2023-04-15T10:24:04.064Z,18.24
2023-04-15T10:25:03.592Z,18.28
2023-04-15T10:26:03.386Z,18.15
2023-04-15T10:27:03.043Z,18.06
2023-04-15T10:28:03.470Z,17.84
2023-04-15T10:29:03.184Z,17.73
2023-04-15T10:30:03.004Z,17.55
2023-04-15T10:31:02.998Z,17.35
2023-04-15T10:32:03.451Z,17.33
2023-04-15T10:33:03.722Z,17.38
2023-04-15T10:34:04.036Z,17.32
2023-04-15T10:35:03.429Z,17.30
2023-04-15T10:36:03.946Z,17.36
2023-04-15T10:37:03.594Z,17.43
2023-04-15T10:38:03.429Z,17.40
2023-04-15T10:39:03.371Z,17.32
2023-04-15T10:40:03.996Z,17.17
2023-04-15T10:41:03.421Z,17.15
2023-04-15T10:42:02.971Z,17.18
2023-04-15T10:43:02.924Z,17.23
2023-04-15T10:44:03.224Z,17.23
2023-04-15T10:45:03.191Z,17.25
2023-04-15T10:46:03.175Z,17.29
2023-04-15T10:47:02.992Z,17.44
2023-04-15T10:48:03.795Z,17.48
2023-04-15T10:49:03.221Z,17.38
2023-04-15T10:50:03.120Z,17.35
2023-04-15T10:51:03.122Z,17.36
2023-04-15T10:52:03.114Z,17.28
2023-04-15T10:53:02.961Z,17.14
2023-04-15T10:54:03.525Z,17.20
2023-04-15T10:55:03.031Z,17.23
2023-04-15T10:56:02.963Z,17.22
2023-04-15T10:57:03.434Z,17.11
2023-04-15T10:58:03.446Z,17.08
2023-04-15T10:59:03.527Z,17.15
2023-04-15T11:00:03.748Z,17.25
2023-04-15T11:01:03.575Z,17.41
2023-04-15T11:02:02.658Z,17.55
2023-04-15T11:03:02.614Z,17.69
2023-04-15T11:04:03.358Z,17.67
2023-04-15T11:05:02.690Z,17.73
2023-04-15T11:06:02.633Z,17.69
2023-04-15T11:07:02.281Z,17.59
2023-04-15T11:08:02.215Z,17.38
2023-04-15T11:09:02.179Z,17.26
2023-04-15T11:10:02.157Z,17.15
2023-04-15T11:11:02.517Z,17.10
2023-04-15T11:12:02.669Z,17.08
2023-04-15T11:13:02.574Z,16.96
2023-04-15T11:14:02.711Z,16.90
2023-04-15T11:15:02.748Z,16.90
2023-04-15T11:16:02.762Z,16.95
2023-04-15T11:17:02.705Z,16.99
2023-04-15T11:18:02.583Z,16.90
2023-04-15T11:19:02.573Z,16.93
2023-04-15T11:20:02.548Z,16.89
2023-04-15T11:21:03.046Z,16.92
2023-04-15T11:22:02.480Z,16.98
2023-04-15T11:23:14.042Z,16.98
2023-04-15T11:24:02.896Z,16.98
2023-04-15T11:25:02.203Z,16.93
2023-04-15T11:26:02.115Z,16.80
2023-04-15T11:27:02.743Z,16.75
2023-04-15T11:28:03.023Z,16.70
2023-04-15T11:29:02.801Z,16.71
2023-04-15T11:30:02.843Z,16.71
2023-04-15T11:31:02.741Z,16.60
2023-04-15T11:32:02.522Z,16.35
2023-04-15T11:33:02.175Z,16.20
2023-04-15T11:34:02.219Z,16.16
2023-04-15T11:35:02.575Z,16.22
2023-04-15T11:36:02.456Z,16.27
2023-04-15T11:37:03.088Z,16.30
2023-04-15T11:38:03.306Z,16.25
2023-04-15T11:39:02.971Z,16.27
2023-04-15T11:40:02.959Z,16.33
2023-04-15T11:41:02.883Z,16.30
2023-04-15T11:42:02.535Z,16.26
2023-04-15T11:43:02.446Z,16.25
2023-04-15T11:44:02.691Z,16.20
2023-04-15T11:45:02.114Z,16.16
2023-04-15T11:46:02.072Z,16.07
2023-04-15T11:47:02.647Z,15.97
2023-04-15T11:48:02.576Z,15.94
2023-04-15T11:49:02.525Z,15.93
2023-04-15T11:50:02.462Z,15.86
2023-04-15T11:51:02.432Z,15.89
2023-04-15T11:52:03.018Z,15.93
2023-04-15T11:53:02.522Z,15.99
2023-04-15T11:54:03.436Z,16.01
2023-04-15T11:55:03.180Z,16.06
2023-04-15T11:56:02.890Z,16.03
2023-04-15T11:57:02.559Z,15.97
2023-04-15T11:58:02.382Z,15.96
2023-04-15T11:59:02.365Z,15.99
2023-04-15T12:00:02.043Z,15.96
2023-04-15T12:01:02.596Z,15.99
2023-04-15T12:02:03.111Z,15.93
2023-04-15T12:03:02.762Z,15.94
2023-04-15T12:04:03.097Z,15.92
2023-04-15T12:05:03.023Z,15.81
2023-04-15T12:06:02.846Z,15.81
2023-04-15T12:07:02.480Z,15.79
2023-04-15T12:08:02.285Z,15.72
2023-04-15T12:09:02.100Z,15.63
2023-04-15T12:10:02.535Z,15.49
2023-04-15T12:11:02.437Z,15.35
2023-04-15T12:12:02.758Z,15.13
2023-04-15T12:13:02.435Z,14.98
2023-04-15T12:14:02.619Z,14.75
2023-04-15T12:15:02.613Z,14.68
2023-04-15T12:16:02.763Z,14.68
2023-04-15T12:17:03.251Z,14.72
2023-04-15T12:18:02.840Z,14.65
2023-04-15T12:19:02.627Z,14.61
2023-04-15T12:20:03.180Z,14.56
2023-04-15T12:21:03.071Z,14.47
2023-04-15T12:22:02.011Z,14.38
2023-04-15T12:23:02.634Z,14.35
2023-04-15T12:24:02.449Z,14.32
2023-04-15T12:25:02.041Z,14.25
2023-04-15T12:26:02.639Z,14.19
2023-04-15T12:27:02.162Z,14.17
2023-04-15T12:28:02.758Z,14.17
2023-04-15T12:29:02.304Z,14.16
2023-04-15T12:30:02.815Z,14.07
2023-04-15T12:31:02.458Z,14.06
2023-04-15T12:32:02.408Z,14.02
2023-04-15T12:33:02.979Z,14.01
2023-04-15T12:34:02.831Z,14.04
2023-04-15T12:35:03.029Z,14.10
2023-04-15T12:36:03.078Z,14.19
2023-04-15T12:37:02.748Z,14.24
2023-04-15T12:38:03.245Z,14.20
2023-04-15T12:39:03.055Z,14.17
2023-04-15T12:40:02.989Z,14.17
2023-04-15T12:41:03.258Z,14.19
2023-04-15T12:42:03.140Z,14.24
2023-04-15T12:43:02.773Z,14.29
2023-04-15T12:44:02.612Z,14.29
2023-04-15T12:45:02.366Z,14.21
2023-04-15T12:46:02.276Z,14.20
2023-04-15T12:47:02.941Z,14.17
2023-04-15T12:48:02.383Z,14.17
2023-04-15T12:49:02.161Z,14.27
2023-04-15T12:50:02.573Z,14.34
2023-04-15T12:51:03.933Z,14.38
2023-04-15T12:52:02.087Z,14.34
2023-04-15T12:53:02.673Z,14.27
2023-04-15T12:54:02.889Z,14.21
2023-04-15T12:55:02.902Z,14.20
2023-04-15T12:56:02.761Z,14.17
2023-04-15T12:57:05.973Z,14.14
2023-04-15T12:58:03.000Z,14.12
2023-04-15T12:59:03.343Z,14.06
2023-04-15T13:00:02.978Z,14.01
2023-04-15T13:01:02.841Z,14.02
2023-04-15T13:02:03.448Z,14.06
2023-04-15T13:03:03.442Z,13.99
2023-04-15T13:04:02.177Z,13.96
2023-04-15T13:05:02.485Z,13.95
2023-04-15T13:06:02.344Z,13.88
2023-04-15T13:07:02.584Z,13.80